sensor_id;sensor_type;location;lat;lon;timestamp;pressure;altitude;pressure_sealevel;temperature;humidity
57562;BME280;43397;51.530;5.974;2022-12-29T00:01:23;99769.75;;;10.60;100.00
57562;BME280;43397;51.530;5.974;2022-12-29T00:04:25;99731.16;;;10.45;100.00
57562;BME280;43397;51.530;5.974;2022-12-29T00:07:26;99753.69;;;10.28;100.00
57562;BME280;43397;51.530;5.974;2022-12-29T00:10:28;99755.66;;;10.20;100.00
57562;BME280;43397;51.530;5.974;2022-12-29T00:13:30;99739.69;;;10.22;100.00
57562;BME280;43397;51.530;5.974;2022-12-29T00:16:33;99736.94;;;10.25;100.00
57562;BME280;43397;51.530;5.974;2022-12-29T00:19:33;99733.41;;;10.26;100.00
57562;BME280;43397;51.530;5.974;2022-12-29T00:22:35;99721.94;;;10.24;100.00
57562;BME280;43397;51.530;5.974;2022-12-29T00:25:37;99702.31;;;10.31;100.00
57562;BME280;43397;51.530;5.974;2022-12-29T00:28:38;99704.94;;;10.33;100.00
57562;BME280;43397;51.530;5.974;2022-12-29T00:31:40;99704.09;;;10.31;100.00
57562;BME280;43397;51.530;5.974;2022-12-29T00:34:42;99706.59;;;10.37;100.00
57562;BME280;43397;51.530;5.974;2022-12-29T00:37:46;99688.09;;;10.32;100.00
57562;BME280;43397;51.530;5.974;2022-12-29T00:40:46;99693.25;;;10.38;100.00
57562;BME280;43397;51.530;5.974;2022-12-29T00:43:58;99660.66;;;10.33;100.00
57562;BME280;43397;51.530;5.974;2022-12-29T00:46:49;99680.00;;;10.38;100.00
57562;BME280;43397;51.530;5.974;2022-12-29T00:49:51;99676.38;;;10.41;100.00
57562;BME280;43397;51.530;5.974;2022-12-29T00:52:52;99682.47;;;10.44;100.00
57562;BME280;43397;51.530;5.974;2022-12-29T00:55:54;99679.03;;;10.41;100.00
57562;BME280;43397;51.530;5.974;2022-12-29T00:58:59;99663.06;;;10.42;100.00
57562;BME280;43397;51.530;5.974;2022-12-29T01:01:57;99663.03;;;10.44;100.00
57562;BME280;43397;51.530;5.974;2022-12-29T01:04:59;99669.91;;;10.51;100.00
57562;BME280;43397;51.530;5.974;2022-12-29T01:08:01;99666.25;;;10.55;100.00
57562;BME280;43397;51.530;5.974;2022-12-29T01:11:04;99671.50;;;10.58;100.00
57562;BME280;43397;51.530;5.974;2022-12-29T01:14:05;99664.59;;;10.51;100.00
57562;BME280;43397;51.530;5.974;2022-12-29T01:17:06;99659.28;;;10.51;100.00
57562;BME280;43397;51.530;5.974;2022-12-29T01:20:09;99656.56;;;10.54;100.00
57562;BME280;43397;51.530;5.974;2022-12-29T01:23:10;99665.25;;;10.59;100.00
57562;BME280;43397;51.530;5.974;2022-12-29T01:26:13;99652.78;;;10.63;100.00
57562;BME280;43397;51.530;5.974;2022-12-29T01:29:13;99648.22;;;10.66;100.00
57562;BME280;43397;51.530;5.974;2022-12-29T01:32:15;99654.31;;;10.72;100.00
57562;BME280;43397;51.530;5.974;2022-12-29T01:35:17;99633.94;;;10.70;100.00
57562;BME280;43397;51.530;5.974;2022-12-29T01:38:19;99647.06;;;10.77;100.00
57562;BME280;43397;51.530;5.974;2022-12-29T01:41:20;99662.81;;;10.84;100.00
57562;BME280;43397;51.530;5.974;2022-12-29T01:47:30;99656.41;;;10.91;100.00
57562;BME280;43397;51.530;5.974;2022-12-29T01:50:28;99651.16;;;10.88;100.00
57562;BME280;43397;51.530;5.974;2022-12-29T01:53:29;99651.94;;;10.92;100.00
57562;BME280;43397;51.530;5.974;2022-12-29T01:56:29;99642.16;;;10.93;100.00
57562;BME280;43397;51.530;5.974;2022-12-29T01:59:32;99630.63;;;10.94;100.00
57562;BME280;43397;51.530;5.974;2022-12-29T02:02:33;99618.19;;;10.96;100.00
57562;BME280;43397;51.530;5.974;2022-12-29T02:05:39;99622.28;;;11.06;100.00
57562;BME280;43397;51.530;5.974;2022-12-29T02:08:37;99621.41;;;11.05;100.00
57562;BME280;43397;51.530;5.974;2022-12-29T02:11:41;99625.72;;;11.09;100.00
57562;BME280;43397;51.530;5.974;2022-12-29T02:14:41;99627.53;;;11.09;100.00
57562;BME280;43397;51.530;5.974;2022-12-29T02:17:51;99635.31;;;11.15;100.00
57562;BME280;43397;51.530;5.974;2022-12-29T02:21:02;99637.97;;;11.15;100.00
57562;BME280;43397;51.530;5.974;2022-12-29T02:27:01;99644.75;;;11.25;100.00
57562;BME280;43397;51.530;5.974;2022-12-29T02:30:05;99623.59;;;11.21;100.00
57562;BME280;43397;51.530;5.974;2022-12-29T02:32:54;99624.59;;;11.18;100.00
57562;BME280;43397;51.530;5.974;2022-12-29T02:35:56;99628.16;;;11.17;100.00
57562;BME280;43397;51.530;5.974;2022-12-29T02:38:59;99636.16;;;11.17;100.00
57562;BME280;43397;51.530;5.974;2022-12-29T02:42:02;99629.00;;;11.19;100.00
57562;BME280;43397;51.530;5.974;2022-12-29T02:45:02;99634.22;;;11.22;100.00
57562;BME280;43397;51.530;5.974;2022-12-29T02:48:06;99634.16;;;11.24;100.00
57562;BME280;43397;51.530;5.974;2022-12-29T02:51:04;99637.56;;;11.29;100.00
57562;BME280;43397;51.530;5.974;2022-12-29T02:54:18;99629.69;;;11.26;100.00
57562;BME280;43397;51.530;5.974;2022-12-29T02:57:12;99625.19;;;11.28;100.00
57562;BME280;43397;51.530;5.974;2022-12-29T03:00:09;99636.06;;;11.19;100.00
57562;BME280;43397;51.530;5.974;2022-12-29T03:03:16;99626.59;;;11.10;100.00
57562;BME280;43397;51.530;5.974;2022-12-29T03:06:21;99622.28;;;11.06;100.00
57562;BME280;43397;51.530;5.974;2022-12-29T03:09:17;99623.31;;;11.02;100.00
57562;BME280;43397;51.530;5.974;2022-12-29T03:12:21;99605.75;;;10.96;100.00
57562;BME280;43397;51.530;5.974;2022-12-29T03:15:19;99602.38;;;10.91;100.00
57562;BME280;43397;51.530;5.974;2022-12-29T03:21:26;99587.59;;;10.81;100.00
57562;BME280;43397;51.530;5.974;2022-12-29T03:24:22;99607.38;;;10.70;100.00
57562;BME280;43397;51.530;5.974;2022-12-29T03:27:25;99611.44;;;10.53;100.00
57562;BME280;43397;51.530;5.974;2022-12-29T03:30:24;99572.84;;;10.39;100.00
57562;BME280;43397;51.530;5.974;2022-12-29T03:33:27;99597.91;;;10.29;100.00
57562;BME280;43397;51.530;5.974;2022-12-29T03:36:34;99585.88;;;10.14;100.00
57562;BME280;43397;51.530;5.974;2022-12-29T03:39:29;99593.09;;;10.09;100.00
57562;BME280;43397;51.530;5.974;2022-12-29T03:42:32;99589.28;;;9.86;100.00
57562;BME280;43397;51.530;5.974;2022-12-29T03:45:32;99571.69;;;9.82;100.00
57562;BME280;43397;51.530;5.974;2022-12-29T03:48:34;99572.69;;;9.78;100.00
57562;BME280;43397;51.530;5.974;2022-12-29T03:51:36;99583.22;;;9.80;100.00
57562;BME280;43397;51.530;5.974;2022-12-29T03:54:38;99593.94;;;9.77;100.00
57562;BME280;43397;51.530;5.974;2022-12-29T03:57:39;99580.66;;;9.77;100.00
57562;BME280;43397;51.530;5.974;2022-12-29T04:00:41;99582.97;;;9.56;100.00
57562;BME280;43397;51.530;5.974;2022-12-29T04:03:43;99583.16;;;9.47;100.00
57562;BME280;43397;51.530;5.974;2022-12-29T04:06:44;99590.13;;;9.51;100.00
57562;BME280;43397;51.530;5.974;2022-12-29T04:09:46;99589.38;;;9.46;100.00
57562;BME280;43397;51.530;5.974;2022-12-29T04:12:48;99585.66;;;9.53;100.00
57562;BME280;43397;51.530;5.974;2022-12-29T04:15:50;99604.19;;;9.56;100.00
57562;BME280;43397;51.530;5.974;2022-12-29T04:18:51;99598.06;;;9.53;100.00
57562;BME280;43397;51.530;5.974;2022-12-29T04:21:53;99598.03;;;9.54;100.00
57562;BME280;43397;51.530;5.974;2022-12-29T04:24:55;99611.22;;;9.57;100.00
57562;BME280;43397;51.530;5.974;2022-12-29T04:27:57;99613.00;;;9.57;100.00
57562;BME280;43397;51.530;5.974;2022-12-29T04:30:59;99612.16;;;9.55;100.00
57562;BME280;43397;51.530;5.974;2022-12-29T04:34:00;99609.59;;;9.52;100.00
57562;BME280;43397;51.530;5.974;2022-12-29T04:37:02;99621.22;;;9.46;100.00
57562;BME280;43397;51.530;5.974;2022-12-29T04:40:05;99606.34;;;9.39;100.00
57562;BME280;43397;51.530;5.974;2022-12-29T04:43:05;99609.53;;;9.53;100.00
57562;BME280;43397;51.530;5.974;2022-12-29T04:46:07;99581.19;;;9.55;100.00
57562;BME280;43397;51.530;5.974;2022-12-29T04:49:09;99592.84;;;9.50;100.00
57562;BME280;43397;51.530;5.974;2022-12-29T04:52:11;99607.69;;;9.57;100.00
57562;BME280;43397;51.530;5.974;2022-12-29T05:01:16;99627.03;;;9.23;100.00
57562;BME280;43397;51.530;5.974;2022-12-29T05:04:18;99626.38;;;9.13;100.00
57562;BME280;43397;51.530;5.974;2022-12-29T05:07:21;99622.13;;;9.06;100.00
57562;BME280;43397;51.530;5.974;2022-12-29T05:10:21;99638.06;;;9.03;100.00
57562;BME280;43397;51.530;5.974;2022-12-29T05:13:24;99625.75;;;9.00;100.00
57562;BME280;43397;51.530;5.974;2022-12-29T05:16:25;99649.72;;;8.96;100.00
57562;BME280;43397;51.530;5.974;2022-12-29T05:19:31;99630.41;;;8.91;100.00
57562;BME280;43397;51.530;5.974;2022-12-29T05:22:27;99632.78;;;9.03;100.00
57562;BME280;43397;51.530;5.974;2022-12-29T05:25:30;99635.44;;;9.01;100.00
57562;BME280;43397;51.530;5.974;2022-12-29T05:28:32;99654.94;;;8.99;100.00
57562;BME280;43397;51.530;5.974;2022-12-29T05:31:34;99647.88;;;8.99;100.00
57562;BME280;43397;51.530;5.974;2022-12-29T05:34:35;99672.63;;;8.98;100.00
57562;BME280;43397;51.530;5.974;2022-12-29T05:37:36;99672.81;;;8.91;100.00
57562;BME280;43397;51.530;5.974;2022-12-29T05:40:37;99681.50;;;8.97;100.00
57562;BME280;43397;51.530;5.974;2022-12-29T05:43:40;99662.28;;;8.86;100.00
57562;BME280;43397;51.530;5.974;2022-12-29T05:46:42;99678.13;;;8.89;100.00
57562;BME280;43397;51.530;5.974;2022-12-29T05:49:44;99673.66;;;8.91;100.00
57562;BME280;43397;51.530;5.974;2022-12-29T05:52:46;99695.31;;;9.12;100.00
57562;BME280;43397;51.530;5.974;2022-12-29T05:55:48;99703.25;;;9.13;100.00
57562;BME280;43397;51.530;5.974;2022-12-29T05:58:49;99702.38;;;9.13;100.00
57562;BME280;43397;51.530;5.974;2022-12-29T06:01:51;99707.59;;;9.17;100.00
57562;BME280;43397;51.530;5.974;2022-12-29T06:04:53;99710.34;;;9.11;100.00
57562;BME280;43397;51.530;5.974;2022-12-29T06:07:54;99712.34;;;9.00;100.00
57562;BME280;43397;51.530;5.974;2022-12-29T06:10:56;99718.59;;;8.97;100.00
57562;BME280;43397;51.530;5.974;2022-12-29T06:13:58;99719.66;;;8.89;100.00
57562;BME280;43397;51.530;5.974;2022-12-29T06:17:00;99722.41;;;8.82;100.00
57562;BME280;43397;51.530;5.974;2022-12-29T06:20:00;99730.03;;;8.99;100.00
57562;BME280;43397;51.530;5.974;2022-12-29T06:23:03;99727.09;;;9.13;100.00
57562;BME280;43397;51.530;5.974;2022-12-29T06:26:05;99717.06;;;9.27;100.00
57562;BME280;43397;51.530;5.974;2022-12-29T06:29:07;99707.16;;;9.37;100.00
57562;BME280;43397;51.530;5.974;2022-12-29T06:32:09;99725.75;;;9.36;100.00
57562;BME280;43397;51.530;5.974;2022-12-29T06:35:10;99723.06;;;9.37;100.00
57562;BME280;43397;51.530;5.974;2022-12-29T06:38:12;99714.78;;;9.53;100.00
57562;BME280;43397;51.530;5.974;2022-12-29T06:41:14;99714.94;;;9.45;100.00
57562;BME280;43397;51.530;5.974;2022-12-29T06:44:15;99720.88;;;9.56;100.00
57562;BME280;43397;51.530;5.974;2022-12-29T06:47:17;99705.22;;;9.45;100.00
57562;BME280;43397;51.530;5.974;2022-12-29T06:50:19;99713.72;;;9.60;100.00
57562;BME280;43397;51.530;5.974;2022-12-29T06:53:21;99707.44;;;9.64;100.00
57562;BME280;43397;51.530;5.974;2022-12-29T06:56:22;99714.31;;;9.73;100.00
57562;BME280;43397;51.530;5.974;2022-12-29T06:59:24;99707.19;;;9.75;100.00
57562;BME280;43397;51.530;5.974;2022-12-29T07:02:26;99724.06;;;9.72;100.00
57562;BME280;43397;51.530;5.974;2022-12-29T07:05:28;99717.09;;;9.66;100.00
57562;BME280;43397;51.530;5.974;2022-12-29T07:08:29;99713.53;;;9.69;100.00
57562;BME280;43397;51.530;5.974;2022-12-29T07:11:31;99711.50;;;9.80;100.00
57562;BME280;43397;51.530;5.974;2022-12-29T07:14:37;99715.91;;;9.80;100.00
57562;BME280;43397;51.530;5.974;2022-12-29T07:17:35;99714.03;;;9.85;100.00
57562;BME280;43397;51.530;5.974;2022-12-29T07:20:35;99710.56;;;9.81;100.00
57562;BME280;43397;51.530;5.974;2022-12-29T07:29:42;99718.66;;;9.75;100.00
57562;BME280;43397;51.530;5.974;2022-12-29T07:32:43;99730.13;;;9.77;100.00
57562;BME280;43397;51.530;5.974;2022-12-29T07:35:45;99754.09;;;9.74;100.00
57562;BME280;43397;51.530;5.974;2022-12-29T07:38:47;99753.25;;;9.72;100.00
57562;BME280;43397;51.530;5.974;2022-12-29T07:41:49;99762.06;;;9.73;100.00
57562;BME280;43397;51.530;5.974;2022-12-29T07:44:50;99770.00;;;9.74;100.00
57562;BME280;43397;51.530;5.974;2022-12-29T07:47:52;99769.19;;;9.71;100.00
57562;BME280;43397;51.530;5.974;2022-12-29T07:50:54;99774.47;;;9.72;100.00
57562;BME280;43397;51.530;5.974;2022-12-29T07:53:56;99775.44;;;9.68;100.00
57562;BME280;43397;51.530;5.974;2022-12-29T07:56:57;99781.38;;;9.79;100.00
57562;BME280;43397;51.530;5.974;2022-12-29T07:59:58;99790.22;;;9.80;100.00
57562;BME280;43397;51.530;5.974;2022-12-29T08:03:01;99770.63;;;9.85;100.00
57562;BME280;43397;51.530;5.974;2022-12-29T08:06:01;99771.38;;;9.92;100.00
57562;BME280;43397;51.530;5.974;2022-12-29T08:09:04;99765.31;;;9.87;100.00
57562;BME280;43397;51.530;5.974;2022-12-29T08:12:08;99752.88;;;9.89;100.00
57562;BME280;43397;51.530;5.974;2022-12-29T08:15:10;99776.53;;;9.98;100.00
57562;BME280;43397;51.530;5.974;2022-12-29T08:18:10;99788.97;;;9.96;100.00
57562;BME280;43397;51.530;5.974;2022-12-29T08:21:11;99778.25;;;10.01;100.00
57562;BME280;43397;51.530;5.974;2022-12-29T08:24:13;99783.44;;;10.05;100.00
57562;BME280;43397;51.530;5.974;2022-12-29T08:27:15;99793.75;;;10.19;100.00
57562;BME280;43397;51.530;5.974;2022-12-29T08:30:17;99770.78;;;10.17;100.00
57562;BME280;43397;51.530;5.974;2022-12-29T08:33:18;99789.03;;;10.32;100.00
57562;BME280;43397;51.530;5.974;2022-12-29T08:36:19;99747.44;;;10.33;100.00
57562;BME280;43397;51.530;5.974;2022-12-29T08:39:22;99799.19;;;10.52;100.00
57562;BME280;43397;51.530;5.974;2022-12-29T08:42:24;99801.19;;;10.42;100.00
57562;BME280;43397;51.530;5.974;2022-12-29T08:45:25;99812.03;;;10.33;100.00
57562;BME280;43397;51.530;5.974;2022-12-29T08:48:27;99805.88;;;10.31;100.00
57562;BME280;43397;51.530;5.974;2022-12-29T08:51:29;99823.66;;;10.29;100.00
57562;BME280;43397;51.530;5.974;2022-12-29T08:54:31;99822.75;;;10.28;100.00
57562;BME280;43397;51.530;5.974;2022-12-29T08:57:32;99815.66;;;10.27;100.00
57562;BME280;43397;51.530;5.974;2022-12-29T09:00:34;99818.38;;;10.26;100.00
57562;BME280;43397;51.530;5.974;2022-12-29T09:03:36;99818.53;;;10.20;100.00
57562;BME280;43397;51.530;5.974;2022-12-29T09:06:38;99810.56;;;10.20;100.00
57562;BME280;43397;51.530;5.974;2022-12-29T09:09:39;99819.31;;;10.23;100.00
57562;BME280;43397;51.530;5.974;2022-12-29T09:12:41;99829.44;;;10.46;100.00
57562;BME280;43397;51.530;5.974;2022-12-29T09:15:43;99816.22;;;10.43;100.00
57562;BME280;43397;51.530;5.974;2022-12-29T09:18:45;99812.94;;;10.69;100.00
57562;BME280;43397;51.530;5.974;2022-12-29T09:21:45;99796.53;;;10.86;100.00
57562;BME280;43397;51.530;5.974;2022-12-29T09:24:48;99829.47;;;10.81;100.00
57562;BME280;43397;51.530;5.974;2022-12-29T09:27:50;99813.97;;;10.62;100.00
57562;BME280;43397;51.530;5.974;2022-12-29T09:30:52;99807.16;;;10.52;100.00
57562;BME280;43397;51.530;5.974;2022-12-29T09:33:53;99810.56;;;10.57;100.00
57562;BME280;43397;51.530;5.974;2022-12-29T09:36:55;99791.59;;;10.71;100.00
57562;BME280;43397;51.530;5.974;2022-12-29T09:39:57;99801.66;;;10.94;100.00
57562;BME280;43397;51.530;5.974;2022-12-29T09:46:08;99814.84;;;11.30;100.00
57562;BME280;43397;51.530;5.974;2022-12-29T09:49:08;99811.28;;;11.31;100.00
57562;BME280;43397;51.530;5.974;2022-12-29T09:52:08;99817.31;;;11.38;100.00
57562;BME280;43397;51.530;5.974;2022-12-29T09:55:10;99838.25;;;11.50;100.00
57562;BME280;43397;51.530;5.974;2022-12-29T09:58:12;99820.22;;;11.60;100.00
57562;BME280;43397;51.530;5.974;2022-12-29T10:01:19;99854.00;;;11.56;100.00
57562;BME280;43397;51.530;5.974;2022-12-29T10:04:11;99827.88;;;11.70;100.00
57562;BME280;43397;51.530;5.974;2022-12-29T10:07:19;99841.84;;;11.47;100.00
57562;BME280;43397;51.530;5.974;2022-12-29T10:10:30;99808.22;;;11.14;100.00
57562;BME280;43397;51.530;5.974;2022-12-29T10:13:23;99859.28;;;10.92;100.00
57562;BME280;43397;51.530;5.974;2022-12-29T10:16:23;99879.94;;;10.82;100.00
57562;BME280;43397;51.530;5.974;2022-12-29T10:19:45;99864.47;;;10.62;100.00
57562;BME280;43397;51.530;5.974;2022-12-29T10:22:32;99872.69;;;10.52;100.00
57562;BME280;43397;51.530;5.974;2022-12-29T10:25:26;99884.59;;;10.35;100.00
57562;BME280;43397;51.530;5.974;2022-12-29T10:28:34;99883.34;;;10.11;100.00
57562;BME280;43397;51.530;5.974;2022-12-29T10:31:33;99896.94;;;9.96;100.00
57562;BME280;43397;51.530;5.974;2022-12-29T10:34:30;99898.75;;;9.94;100.00
57562;BME280;43397;51.530;5.974;2022-12-29T10:37:34;99914.78;;;9.89;100.00
57562;BME280;43397;51.530;5.974;2022-12-29T10:40:36;99921.13;;;9.80;100.00
57562;BME280;43397;51.530;5.974;2022-12-29T10:43:37;99915.25;;;9.64;100.00
57562;BME280;43397;51.530;5.974;2022-12-29T10:46:36;99926.69;;;9.66;100.00
57562;BME280;43397;51.530;5.974;2022-12-29T10:49:40;99927.63;;;9.64;100.00
57562;BME280;43397;51.530;5.974;2022-12-29T10:52:39;99929.59;;;9.54;100.00
57562;BME280;43397;51.530;5.974;2022-12-29T10:55:41;99940.44;;;9.42;100.00
57562;BME280;43397;51.530;5.974;2022-12-29T10:58:46;99938.41;;;9.56;100.00
57562;BME280;43397;51.530;5.974;2022-12-29T11:01:54;99953.19;;;9.70;100.00
57562;BME280;43397;51.530;5.974;2022-12-29T11:04:52;99948.72;;;9.72;100.00
57562;BME280;43397;51.530;5.974;2022-12-29T11:07:49;99958.34;;;9.77;100.00
57562;BME280;43397;51.530;5.974;2022-12-29T11:10:58;99950.41;;;9.76;100.00
57562;BME280;43397;51.530;5.974;2022-12-29T11:13:56;99962.63;;;9.84;100.00
57562;BME280;43397;51.530;5.974;2022-12-29T11:16:59;99969.56;;;9.92;100.00
57562;BME280;43397;51.530;5.974;2022-12-29T11:19:56;99969.69;;;9.85;100.00
57562;BME280;43397;51.530;5.974;2022-12-29T11:22:57;99979.75;;;9.68;100.00
57562;BME280;43397;51.530;5.974;2022-12-29T11:26:16;99979.75;;;9.66;100.00
57562;BME280;43397;51.530;5.974;2022-12-29T11:29:21;99985.16;;;9.62;100.00
57562;BME280;43397;51.530;5.974;2022-12-29T11:32:11;99978.91;;;9.64;100.00
57562;BME280;43397;51.530;5.974;2022-12-29T11:35:29;99971.59;;;9.79;100.00
57562;BME280;43397;51.530;5.974;2022-12-29T11:38:05;99944.84;;;9.88;100.00
57562;BME280;43397;51.530;5.974;2022-12-29T11:41:11;99982.59;;;10.04;100.00
57562;BME280;43397;51.530;5.974;2022-12-29T11:44:11;99983.31;;;10.12;100.00
57562;BME280;43397;51.530;5.974;2022-12-29T11:47:19;99983.34;;;10.11;100.00
57562;BME280;43397;51.530;5.974;2022-12-29T11:50:20;99992.84;;;10.21;100.00
57562;BME280;43397;51.530;5.974;2022-12-29T11:53:18;99997.22;;;10.23;100.00
57562;BME280;43397;51.530;5.974;2022-12-29T11:56:32;100012.97;;;10.34;100.00
57562;BME280;43397;51.530;5.974;2022-12-29T11:59:43;99997.00;;;10.37;100.00
57562;BME280;43397;51.530;5.974;2022-12-29T12:02:30;100011.75;;;10.52;100.00
57562;BME280;43397;51.530;5.974;2022-12-29T12:05:30;100003.53;;;10.63;100.00
57562;BME280;43397;51.530;5.974;2022-12-29T12:08:32;100008.97;;;10.57;100.00
57562;BME280;43397;51.530;5.974;2022-12-29T12:11:28;100014.28;;;10.58;100.00
57562;BME280;43397;51.530;5.974;2022-12-29T12:14:30;100010.53;;;10.67;100.00
57562;BME280;43397;51.530;5.974;2022-12-29T12:17:31;99995.47;;;10.66;100.00
57562;BME280;43397;51.530;5.974;2022-12-29T12:20:38;100003.59;;;10.60;100.00
57562;BME280;43397;51.530;5.974;2022-12-29T12:23:38;100007.16;;;10.59;100.00
57562;BME280;43397;51.530;5.974;2022-12-29T12:26:36;100014.41;;;10.50;100.00
57562;BME280;43397;51.530;5.974;2022-12-29T12:29:40;100019.84;;;10.46;100.00
57562;BME280;43397;51.530;5.974;2022-12-29T12:32:43;100023.97;;;10.59;100.00
57562;BME280;43397;51.530;5.974;2022-12-29T12:38:46;100025.75;;;10.59;100.00
57562;BME280;43397;51.530;5.974;2022-12-29T12:41:48;100026.66;;;10.58;100.00
57562;BME280;43397;51.530;5.974;2022-12-29T12:44:53;100032.88;;;10.58;100.00
57562;BME280;43397;51.530;5.974;2022-12-29T12:47:57;100028.75;;;10.43;100.00
57562;BME280;43397;51.530;5.974;2022-12-29T12:50:52;100033.97;;;10.46;100.00
57562;BME280;43397;51.530;5.974;2022-12-29T12:54:01;100020.69;;;10.48;100.00
57562;BME280;43397;51.530;5.974;2022-12-29T12:56:59;100022.50;;;10.46;100.00
57562;BME280;43397;51.530;5.974;2022-12-29T12:59:59;100031.00;;;10.62;100.00
57562;BME280;43397;51.530;5.974;2022-12-29T13:03:04;100036.16;;;10.69;100.00
57562;BME280;43397;51.530;5.974;2022-12-29T13:06:15;100039.53;;;11.52;100.00
57562;BME280;43397;51.530;5.974;2022-12-29T13:09:14;100043.06;;;11.53;100.00
57562;BME280;43397;51.530;5.974;2022-12-29T13:12:12;100044.34;;;10.99;100.00
57562;BME280;43397;51.530;5.974;2022-12-29T13:15:10;100037.50;;;10.89;100.00
57562;BME280;43397;51.530;5.974;2022-12-29T13:18:13;100048.75;;;10.60;100.00
57562;BME280;43397;51.530;5.974;2022-12-29T13:21:08;100059.72;;;10.44;100.00
57562;BME280;43397;51.530;5.974;2022-12-29T13:24:15;100055.78;;;11.40;100.00
57562;BME280;43397;51.530;5.974;2022-12-29T13:27:15;100059.38;;;11.02;100.00
57562;BME280;43397;51.530;5.974;2022-12-29T13:30:14;100062.59;;;11.15;100.00
57562;BME280;43397;51.530;5.974;2022-12-29T13:33:16;100059.72;;;10.44;100.00
57562;BME280;43397;51.530;5.974;2022-12-29T13:36:21;100041.19;;;10.41;100.00
57562;BME280;43397;51.530;5.974;2022-12-29T13:39:19;100060.75;;;10.36;100.00
57562;BME280;43397;51.530;5.974;2022-12-29T13:42:19;100056.22;;;10.41;100.00
57562;BME280;43397;51.530;5.974;2022-12-29T13:45:21;100057.00;;;10.47;100.00
57562;BME280;43397;51.530;5.974;2022-12-29T13:48:23;100074.16;;;10.31;100.00
57562;BME280;43397;51.530;5.974;2022-12-29T13:51:23;100054.00;;;10.19;100.00
57562;BME280;43397;51.530;5.974;2022-12-29T13:54:34;100072.88;;;10.02;100.00
57562;BME280;43397;51.530;5.974;2022-12-29T13:57:35;100084.69;;;9.86;100.00
57562;BME280;43397;51.530;5.974;2022-12-29T14:00:31;100080.56;;;9.70;100.00
57562;BME280;43397;51.530;5.974;2022-12-29T14:03:43;100083.31;;;9.63;100.00
57562;BME280;43397;51.530;5.974;2022-12-29T14:06:33;100080.16;;;9.38;100.00
57562;BME280;43397;51.530;5.974;2022-12-29T14:09:45;100089.28;;;9.20;100.00
57562;BME280;43397;51.530;5.974;2022-12-29T14:12:38;100095.81;;;8.98;100.00
57562;BME280;43397;51.530;5.974;2022-12-29T14:15:39;100096.94;;;8.78;100.00
57562;BME280;43397;51.530;5.974;2022-12-29T14:18:43;100097.88;;;8.74;100.00
57562;BME280;43397;51.530;5.974;2022-12-29T14:21:40;100103.97;;;8.82;100.00
57562;BME280;43397;51.530;5.974;2022-12-29T14:24:44;100109.38;;;8.73;100.00
57562;BME280;43397;51.530;5.974;2022-12-29T14:27:53;100116.53;;;8.65;100.00
57562;BME280;43397;51.530;5.974;2022-12-29T14:30:53;100109.53;;;8.58;100.00
57562;BME280;43397;51.530;5.974;2022-12-29T14:36:55;100124.56;;;8.57;100.00
57562;BME280;43397;51.530;5.974;2022-12-29T14:40:02;100109.53;;;8.58;100.00
57562;BME280;43397;51.530;5.974;2022-12-29T14:42:54;100104.34;;;8.52;100.00
57562;BME280;43397;51.530;5.974;2022-12-29T14:46:00;100119.38;;;8.48;100.00
57562;BME280;43397;51.530;5.974;2022-12-29T14:48:57;100120.25;;;8.49;100.00
57562;BME280;43397;51.530;5.974;2022-12-29T14:52:07;100109.59;;;8.53;100.00
57562;BME280;43397;51.530;5.974;2022-12-29T14:58:03;100097.13;;;8.64;100.00
57562;BME280;43397;51.530;5.974;2022-12-29T15:01:03;100114.56;;;8.81;100.00
57562;BME280;43397;51.530;5.974;2022-12-29T15:04:15;100123.38;;;8.83;100.00
57562;BME280;43397;51.530;5.974;2022-12-29T15:07:09;100126.03;;;8.83;100.00
57562;BME280;43397;51.530;5.974;2022-12-29T15:10:14;100131.25;;;8.88;100.00
57562;BME280;43397;51.530;5.974;2022-12-29T15:13:16;100125.88;;;8.94;100.00
57562;BME280;43397;51.530;5.974;2022-12-29T15:16:23;100131.31;;;8.84;100.00
57562;BME280;43397;51.530;5.974;2022-12-29T15:19:22;100137.47;;;8.87;100.00
57562;BME280;43397;51.530;5.974;2022-12-29T15:22:15;100147.97;;;8.93;100.00
57562;BME280;43397;51.530;5.974;2022-12-29T15:25:17;100139.34;;;8.78;100.00
57562;BME280;43397;51.530;5.974;2022-12-29T15:28:20;100135.84;;;8.75;100.00
57562;BME280;43397;51.530;5.974;2022-12-29T15:31:22;100150.97;;;8.65;100.00
57562;BME280;43397;51.530;5.974;2022-12-29T15:34:22;100152.03;;;8.52;100.00
57562;BME280;43397;51.530;5.974;2022-12-29T15:37:32;100166.06;;;8.58;100.00
57562;BME280;43397;51.530;5.974;2022-12-29T15:40:28;100161.63;;;8.60;100.00
57562;BME280;43397;51.530;5.974;2022-12-29T15:43:42;100171.38;;;8.58;100.00
57562;BME280;43397;51.530;5.974;2022-12-29T15:46:31;100176.78;;;8.48;100.00
57562;BME280;43397;51.530;5.974;2022-12-29T15:49:32;100163.63;;;8.37;100.00
57562;BME280;43397;51.530;5.974;2022-12-29T15:52:33;100177.81;;;8.27;100.00
57562;BME280;43397;51.530;5.974;2022-12-29T15:55:36;100182.31;;;8.20;100.00
57562;BME280;43397;51.530;5.974;2022-12-29T15:58:42;100196.50;;;8.13;100.00
57562;BME280;43397;51.530;5.974;2022-12-29T16:01:39;100200.13;;;7.99;100.00
57562;BME280;43397;51.530;5.974;2022-12-29T16:04:40;100204.56;;;7.97;100.00
57562;BME280;43397;51.530;5.974;2022-12-29T16:07:51;100202.84;;;7.95;100.00
57562;BME280;43397;51.530;5.974;2022-12-29T16:10:42;100177.28;;;7.88;100.00
57562;BME280;43397;51.530;5.974;2022-12-29T16:13:45;100180.88;;;7.82;100.00
57562;BME280;43397;51.530;5.974;2022-12-29T16:16:48;100180.91;;;7.76;100.00
57562;BME280;43397;51.530;5.974;2022-12-29T16:19:51;100187.16;;;7.67;100.00
57562;BME280;43397;51.530;5.974;2022-12-29T16:22:53;100188.13;;;7.52;100.00
57562;BME280;43397;51.530;5.974;2022-12-29T16:25:53;100198.78;;;7.41;100.00